Time;durP1;ratioP1;P1;durP2;ratioP2;P2;SDS_P1;SDS_P2;PMS_P1;PMS_P2;Temp;Humidity;BMP_temperature;BMP_pressure;BME280_temperature;BME280_humidity;BME280_pressure;Samples;Min_cycle;Max_cycle;Signal;HPM_P1;HPM_P2
2022/07/18 00:00:39;;;;;;;7.45;5.38;;;13.30;99.90;;;;;;5070394;28;20474;-54
2022/07/18 00:03:05;;;;;;;10.65;5.53;;;13.70;99.90;;;;;;5070107;28;20502;-52
2022/07/18 00:05:31;;;;;;;9.75;6.05;;;13.60;99.90;;;;;;5069817;28;20486;-53
2022/07/18 00:07:56;;;;;;;7.70;5.60;;;14.20;99.90;;;;;;5069989;28;20565;-53
2022/07/18 00:10:22;;;;;;;9.45;6.50;;;13.50;99.90;;;;;;5069978;28;20121;-52
2022/07/18 00:12:48;;;;;;;13.07;6.90;;;13.40;99.90;;;;;;5069860;28;20094;-53
2022/07/18 00:15:13;;;;;;;15.23;7.85;;;13.80;99.90;;;;;;5069615;28;20056;-53
2022/07/18 00:17:40;;;;;;;7.65;6.05;;;13.80;99.90;;;;;;5069969;28;20076;-54
2022/07/18 00:20:09;;;;;;;10.45;6.00;;;14.00;99.90;;;;;;5069936;28;20125;-54
2022/07/18 00:22:35;;;;;;;8.52;5.65;;;13.40;99.90;;;;;;5069687;28;20037;-52
2022/07/18 00:25:00;;;;;;;9.63;6.78;;;14.40;99.90;;;;;;5069881;28;20524;-52
2022/07/18 00:27:26;;;;;;;8.55;5.70;;;13.40;99.90;;;;;;5069648;28;20393;-52
2022/07/18 00:29:52;;;;;;;12.05;6.60;;;13.80;99.90;;;;;;5069688;28;20099;-54
2022/07/18 00:32:17;;;;;;;7.68;6.28;;;13.90;99.90;;;;;;5069381;28;20059;-52
2022/07/18 00:34:43;;;;;;;7.78;5.78;;;13.40;99.90;;;;;;5069538;28;20037;-54
2022/07/18 00:37:09;;;;;;;9.02;5.55;;;14.30;99.90;;;;;;5069055;28;20375;-53
2022/07/18 00:39:35;;;;;;;9.25;5.47;;;13.80;99.90;;;;;;5069098;28;20041;-53
2022/07/18 00:42:00;;;;;;;12.68;6.10;;;13.70;99.90;;;;;;5068957;28;20040;-54
2022/07/18 00:44:28;;;;;;;8.70;5.25;;;13.40;99.90;;;;;;5069249;28;20040;-54
2022/07/18 00:46:57;;;;;;;12.30;7.00;;;13.80;99.90;;;;;;5068820;28;20127;-54
2022/07/18 00:49:23;;;;;;;11.85;6.80;;;13.90;99.90;;;;;;5068811;28;20055;-54
2022/07/18 00:51:49;;;;;;;11.60;7.05;;;13.40;99.90;;;;;;5068874;28;20491;-53
2022/07/18 00:54:16;;;;;;;13.13;7.53;;;13.70;99.90;;;;;;5068803;28;20060;-53
2022/07/18 00:56:42;;;;;;;9.45;7.18;;;14.00;99.90;;;;;;5069056;28;20045;-53
2022/07/18 00:59:10;;;;;;;10.85;7.25;;;13.90;99.90;;;;;;5068762;28;20401;-52
2022/07/18 01:01:42;;;;;;;9.88;6.50;;;13.90;99.90;;;;;;5068380;28;20041;-53
2022/07/18 01:04:09;;;;;;;9.93;6.50;;;13.60;99.90;;;;;;5068927;28;20078;-53
2022/07/18 01:06:35;;;;;;;7.82;5.95;;;14.20;99.90;;;;;;5068834;28;20036;-52
2022/07/18 01:09:00;;;;;;;9.10;6.53;;;13.80;99.90;;;;;;5069243;28;20032;-53
2022/07/18 01:11:26;;;;;;;11.52;6.50;;;14.10;99.90;;;;;;5068478;28;20093;-53
2022/07/18 01:13:53;;;;;;;10.35;6.30;;;14.20;99.90;;;;;;5069023;28;20494;-53
2022/07/18 01:16:18;;;;;;;8.73;6.05;;;14.20;99.90;;;;;;5068322;28;20071;-52
2022/07/18 01:18:46;;;;;;;11.18;5.45;;;13.80;99.90;;;;;;5069315;28;20454;-53
2022/07/18 01:21:12;;;;;;;10.43;6.30;;;13.80;99.90;;;;;;5068590;28;20115;-53
2022/07/18 01:23:37;;;;;;;9.63;6.28;;;13.70;99.90;;;;;;5067307;28;20139;-54
2022/07/18 01:26:03;;;;;;;10.27;6.25;;;14.10;99.90;;;;;;5068794;28;20051;-52
2022/07/18 01:28:29;;;;;;;8.65;5.00;;;14.10;99.90;;;;;;5068454;28;20063;-52
2022/07/18 01:30:55;;;;;;;8.30;4.50;;;14.30;99.90;;;;;;5068571;28;20478;-51
2022/07/18 01:33:20;;;;;;;9.05;5.47;;;14.00;99.90;;;;;;5068294;28;20044;-50
2022/07/18 01:35:46;;;;;;;9.50;5.15;;;13.50;99.90;;;;;;5068608;28;20350;-53
2022/07/18 01:38:12;;;;;;;10.50;6.10;;;13.30;99.90;;;;;;5066619;28;20079;-50
2022/07/18 01:40:38;;;;;;;10.13;6.68;;;13.20;99.90;;;;;;5068336;28;20050;-54
2022/07/18 01:43:03;;;;;;;10.32;5.85;;;13.30;99.90;;;;;;5068044;28;20048;-51
2022/07/18 01:45:29;;;;;;;9.57;5.80;;;13.20;99.90;;;;;;5068333;28;20040;-52
2022/07/18 01:47:55;;;;;;;10.07;6.03;;;13.50;99.90;;;;;;5068174;28;20440;-52
2022/07/18 01:50:21;;;;;;;11.25;6.47;;;13.10;99.90;;;;;;5068035;28;20050;-53
2022/07/18 01:52:47;;;;;;;9.00;6.18;;;13.30;99.90;;;;;;5068051;28;20048;-53
2022/07/18 01:55:13;;;;;;;9.27;5.57;;;13.20;99.90;;;;;;5068512;28;20036;-50
2022/07/18 01:57:39;;;;;;;8.48;6.50;;;13.20;99.90;;;;;;5068374;28;20086;-52
2022/07/18 02:00:08;;;;;;;10.38;6.93;;;13.10;99.90;;;;;;5067947;28;20440;-54
2022/07/18 02:02:34;;;;;;;10.75;6.78;;;12.90;99.90;;;;;;5066368;28;20059;-53
2022/07/18 02:04:59;;;;;;;9.73;6.63;;;13.60;99.90;;;;;;5068370;28;20049;-52
2022/07/18 02:07:30;;;;;;;10.70;6.50;;;13.20;99.90;;;;;;5068173;28;20047;-50
2022/07/18 02:09:57;;;;;;;8.95;6.88;;;13.50;99.90;;;;;;5067851;28;20048;-52
2022/07/18 02:12:23;;;;;;;9.20;5.65;;;13.40;99.90;;;;;;5066472;28;20075;-52
2022/07/18 02:14:49;;;;;;;11.93;6.82;;;13.70;99.90;;;;;;5067838;28;20064;-53
2022/07/18 02:17:15;;;;;;;11.57;7.93;;;12.90;99.90;;;;;;5067816;28;20048;-53
2022/07/18 02:19:41;;;;;;;9.52;6.45;;;13.30;99.90;;;;;;5067368;28;20041;-53
2022/07/18 02:22:06;;;;;;;9.15;6.60;;;13.30;99.90;;;;;;5067620;28;20044;-53
2022/07/18 02:24:32;;;;;;;9.05;6.55;;;12.90;99.90;;;;;;5067378;28;20043;-50
2022/07/18 02:26:58;;;;;;;12.00;7.18;;;13.80;99.90;;;;;;5067627;28;20051;-53
2022/07/18 02:29:24;;;;;;;11.05;6.20;;;12.90;99.90;;;;;;5067797;28;20131;-53
2022/07/18 02:31:50;;;;;;;8.38;5.97;;;12.80;99.90;;;;;;5068000;28;20123;-52
2022/07/18 02:34:15;;;;;;;12.13;6.80;;;13.50;99.90;;;;;;5067623;28;20115;-52
2022/07/18 02:36:41;;;;;;;9.35;6.70;;;13.10;99.90;;;;;;5067460;28;20044;-50
2022/07/18 02:39:08;;;;;;;9.15;6.93;;;13.00;99.90;;;;;;5067579;28;20032;-51
2022/07/18 02:41:34;;;;;;;12.25;7.40;;;12.70;99.90;;;;;;5067438;28;20487;-51
2022/07/18 02:44:00;;;;;;;10.52;6.78;;;13.30;99.90;;;;;;5068053;28;20043;-53
2022/07/18 02:46:26;;;;;;;12.18;7.65;;;12.80;99.90;;;;;;5067266;28;20397;-53
2022/07/18 02:48:52;;;;;;;11.02;8.38;;;13.00;99.90;;;;;;5067791;28;20032;-53
2022/07/18 02:51:18;;;;;;;9.60;6.18;;;13.10;99.90;;;;;;5067145;28;20884;-50
2022/07/18 02:53:44;;;;;;;10.43;5.60;;;12.50;99.90;;;;;;5067580;28;20047;-52
2022/07/18 02:56:09;;;;;;;10.55;7.07;;;12.50;99.90;;;;;;5067232;28;20135;-52
2022/07/18 02:58:35;;;;;;;9.10;6.80;;;12.90;99.90;;;;;;5066988;28;20382;-51
2022/07/18 03:01:01;;;;;;;13.65;7.40;;;12.50;99.90;;;;;;5067186;28;20128;-50
2022/07/18 03:03:26;;;;;;;11.30;7.38;;;12.40;99.90;;;;;;5066882;28;20036;-53
2022/07/18 03:05:52;;;;;;;10.13;7.88;;;12.80;99.90;;;;;;5066839;28;20123;-50
2022/07/18 03:08:18;;;;;;;10.82;7.70;;;12.90;99.90;;;;;;5066992;28;20044;-49
2022/07/18 03:10:43;;;;;;;11.00;7.25;;;13.00;99.90;;;;;;5066362;28;20047;-52
2022/07/18 03:13:10;;;;;;;12.88;8.25;;;12.80;99.90;;;;;;5067238;28;20052;-51
2022/07/18 03:15:36;;;;;;;13.27;8.15;;;12.30;99.90;;;;;;5057582;28;20421;-52
2022/07/18 03:18:02;;;;;;;12.73;8.68;;;12.50;99.90;;;;;;5066873;28;20048;-52
2022/07/18 03:20:28;;;;;;;12.57;7.82;;;12.80;99.90;;;;;;5066495;28;20420;-52
2022/07/18 03:22:54;;;;;;;12.98;9.35;;;12.90;99.90;;;;;;5067177;28;20051;-51
2022/07/18 03:25:19;;;;;;;11.27;8.30;;;12.60;99.90;;;;;;5070672;28;20132;-53
2022/07/18 03:27:45;;;;;;;12.80;8.07;;;13.20;99.90;;;;;;5070805;28;20052;-53
2022/07/18 03:30:11;;;;;;;12.40;8.55;;;13.40;99.90;;;;;;5070907;28;20494;-52
2022/07/18 03:32:37;;;;;;;10.40;7.63;;;13.20;99.90;;;;;;5070219;28;20379;-50
2022/07/18 03:35:03;;;;;;;11.63;8.50;;;13.20;99.90;;;;;;5070825;28;20090;-53
2022/07/18 03:37:28;;;;;;;10.82;8.23;;;12.90;99.90;;;;;;5070567;28;20470;-50
2022/07/18 03:39:54;;;;;;;12.38;7.65;;;13.00;99.90;;;;;;5070981;28;20044;-50
2022/07/18 03:42:20;;;;;;;14.65;8.00;;;13.20;99.90;;;;;;5071038;28;20040;-53
2022/07/18 03:44:45;;;;;;;12.18;7.35;;;13.70;99.90;;;;;;5071257;28;20634;-51
2022/07/18 03:47:11;;;;;;;10.38;7.43;;;13.90;99.90;;;;;;5071012;28;20114;-52
2022/07/18 03:49:37;;;;;;;13.00;7.25;;;14.30;99.90;;;;;;5070423;28;20047;-53
2022/07/18 03:52:03;;;;;;;12.57;7.35;;;13.70;99.90;;;;;;5070925;28;20056;-52
2022/07/18 03:54:28;;;;;;;12.23;7.10;;;13.60;99.90;;;;;;5070452;28;20102;-51
2022/07/18 03:56:54;;;;;;;10.98;7.38;;;14.10;99.90;;;;;;5070615;28;20473;-52
2022/07/18 03:59:20;;;;;;;9.93;6.85;;;13.90;99.90;;;;;;5052219;28;20513;-50
2022/07/18 04:01:45;;;;;;;11.95;7.45;;;13.80;99.90;;;;;;5070383;28;20045;-52
2022/07/18 04:04:11;;;;;;;13.90;7.07;;;13.80;99.90;;;;;;5070443;28;20475;-51
2022/07/18 04:06:37;;;;;;;10.30;6.85;;;13.80;99.90;;;;;;5069616;28;20450;-49
2022/07/18 04:09:03;;;;;;;12.40;6.57;;;14.20;99.90;;;;;;5052027;28;20051;-51
2022/07/18 04:11:29;;;;;;;11.88;7.13;;;13.80;99.90;;;;;;5068776;28;20122;-52
2022/07/18 04:13:55;;;;;;;14.48;7.13;;;14.20;99.90;;;;;;5069918;28;20079;-52
2022/07/18 04:16:21;;;;;;;9.52;6.13;;;14.20;99.90;;;;;;5069696;28;20090;-50
2022/07/18 04:18:46;;;;;;;10.60;5.93;;;14.50;99.90;;;;;;5069932;28;20068;-50
2022/07/18 04:21:13;;;;;;;10.18;6.20;;;13.70;99.90;;;;;;5069770;28;20534;-52
2022/07/18 04:23:40;;;;;;;12.40;6.60;;;14.10;99.90;;;;;;5069488;28;20059;-51
2022/07/18 04:26:05;;;;;;;9.07;6.90;;;14.60;99.90;;;;;;5069883;28;20126;-53
2022/07/18 04:28:31;;;;;;;9.75;6.13;;;13.90;99.90;;;;;;5069567;28;20459;-50
2022/07/18 04:30:57;;;;;;;10.80;5.95;;;14.10;99.90;;;;;;5069661;28;20044;-51
2022/07/18 04:33:23;;;;;;;8.10;5.50;;;14.60;99.90;;;;;;5069680;28;20064;-53
2022/07/18 04:35:49;;;;;;;11.07;6.38;;;14.20;99.90;;;;;;5068637;28;20151;-53
2022/07/18 04:38:15;;;;;;;9.73;6.60;;;14.30;99.90;;;;;;5069755;28;20115;-52
2022/07/18 04:40:41;;;;;;;12.05;6.80;;;14.80;99.90;;;;;;5069582;28;20451;-53
2022/07/18 04:43:07;;;;;;;10.43;6.15;;;14.40;99.90;;;;;;5069675;28;20041;-53
2022/07/18 04:45:34;;;;;;;23.73;6.57;;;14.60;99.90;;;;;;5068920;28;20086;-54
2022/07/18 04:48:00;;;;;;;9.52;6.63;;;14.80;99.90;;;;;;5069307;28;20788;-53
2022/07/18 04:50:29;;;;;;;13.10;6.35;;;14.90;99.90;;;;;;5069418;28;20044;-53
2022/07/18 04:52:56;;;;;;;10.23;6.03;;;15.00;99.90;;;;;;5069209;28;20044;-52
2022/07/18 04:55:22;;;;;;;11.15;6.05;;;15.70;99.90;;;;;;5069591;28;20166;-54
2022/07/18 04:57:48;;;;;;;9.63;5.97;;;15.10;99.90;;;;;;5069652;28;20119;-53
2022/07/18 05:00:18;;;;;;;11.05;6.07;;;15.30;99.90;;;;;;5069431;28;20040;-53
2022/07/18 05:02:46;;;;;;;10.05;6.20;;;15.30;99.90;;;;;;5069044;28;20040;-53
2022/07/18 05:05:13;;;;;;;8.18;6.05;;;15.40;99.90;;;;;;5069449;28;20040;-53
2022/07/18 05:07:41;;;;;;;11.55;5.97;;;15.70;99.90;;;;;;5069027;28;20044;-54
2022/07/18 05:10:08;;;;;;;12.05;5.28;;;15.60;99.90;;;;;;5067916;28;20040;-54
2022/07/18 05:12:41;;;;;;;10.80;5.65;;;15.70;99.90;;;;;;5068490;28;20083;-53
2022/07/18 05:15:12;;;;;;;8.95;4.78;;;15.90;99.90;;;;;;5068719;28;20101;-54
2022/07/18 05:17:38;;;;;;;8.75;4.80;;;16.00;99.90;;;;;;5068361;28;20053;-54
2022/07/18 05:20:07;;;;;;;7.05;4.65;;;16.20;99.90;;;;;;5069114;28;20036;-53
2022/07/18 05:22:34;;;;;;;10.20;4.72;;;16.30;99.90;;;;;;5068915;28;20116;-54
2022/07/18 05:25:00;;;;;;;9.07;4.50;;;16.40;99.90;;;;;;5068363;28;20048;-54
2022/07/18 05:27:26;;;;;;;9.00;4.45;;;16.90;99.90;;;;;;5068799;28;20044;-53
2022/07/18 05:29:51;;;;;;;7.35;4.72;;;16.70;99.90;;;;;;5068277;28;20044;-53
2022/07/18 05:32:17;;;;;;;11.55;4.75;;;16.80;99.90;;;;;;5068533;28;20076;-52
2022/07/18 05:34:43;;;;;;;6.40;3.47;;;16.90;99.70;;;;;;5068328;28;20036;-54
2022/07/18 05:37:08;;;;;;;9.48;4.28;;;17.10;99.30;;;;;;5068644;28;20056;-51
2022/07/18 05:39:35;;;;;;;6.95;4.15;;;17.10;99.30;;;;;;5068665;28;20382;-53
2022/07/18 05:42:01;;;;;;;7.40;4.15;;;17.20;98.60;;;;;;5068595;28;20063;-52
2022/07/18 05:44:27;;;;;;;7.70;4.30;;;17.40;99.90;;;;;;5068439;28;20513;-53
2022/07/18 05:46:53;;;;;;;5.93;3.30;;;17.50;99.90;;;;;;5068634;28;20052;-54
2022/07/18 05:49:19;;;;;;;8.65;4.00;;;17.60;96.30;;;;;;5068299;28;20109;-54
2022/07/18 05:51:45;;;;;;;7.57;3.88;;;18.10;95.20;;;;;;5067792;28;20119;-53
2022/07/18 05:54:10;;;;;;;9.65;3.78;;;17.80;95.40;;;;;;5068223;28;20186;-55
2022/07/18 05:56:36;;;;;;;6.45;3.55;;;18.00;94.90;;;;;;5067838;28;20479;-53
2022/07/18 05:59:02;;;;;;;6.88;3.28;;;18.10;94.70;;;;;;5067578;28;20032;-54
2022/07/18 06:01:28;;;;;;;9.32;3.55;;;18.10;93.80;;;;;;5068405;28;20131;-54
2022/07/18 06:03:54;;;;;;;5.90;2.72;;;18.30;94.30;;;;;;5068446;28;20189;-55
2022/07/18 06:06:19;;;;;;;4.10;2.28;;;18.40;94.90;;;;;;5068425;28;20505;-54
2022/07/18 06:08:45;;;;;;;11.20;3.80;;;18.50;95.50;;;;;;5067886;28;20079;-54
2022/07/18 06:11:11;;;;;;;5.32;3.10;;;18.60;98.40;;;;;;5067423;28;20518;-53
2022/07/18 06:13:38;;;;;;;6.93;2.55;;;18.70;92.40;;;;;;5068149;28;20067;-54
2022/07/18 06:16:05;;;;;;;4.65;2.95;;;18.90;93.90;;;;;;5067512;28;20060;-54
2022/07/18 06:18:31;;;;;;;4.28;2.50;;;19.00;93.40;;;;;;5068194;28;20032;-54
2022/07/18 06:20:57;;;;;;;9.10;3.05;;;19.10;91.10;;;;;;5067730;28;20036;-54
2022/07/18 06:23:23;;;;;;;4.80;2.70;;;19.30;90.70;;;;;;5050174;28;20052;-54
2022/07/18 06:25:49;;;;;;;4.90;2.78;;;19.60;90.30;;;;;;5068055;28;20059;-55
2022/07/18 06:28:14;;;;;;;6.72;2.85;;;19.90;89.90;;;;;;5068147;28;20040;-55
2022/07/18 06:30:40;;;;;;;5.15;2.15;;;20.20;88.80;;;;;;5067636;28;20048;-55
2022/07/18 06:33:07;;;;;;;5.05;2.03;;;20.60;87.20;;;;;;5067857;28;20123;-55
2022/07/18 06:35:33;;;;;;;4.93;2.70;;;21.10;86.30;;;;;;5067511;28;20040;-55
2022/07/18 06:37:59;;;;;;;4.15;1.85;;;21.50;84.50;;;;;;5049383;28;20044;-55
2022/07/18 06:40:25;;;;;;;3.60;1.73;;;21.90;83.60;;;;;;5067002;28;20052;-55
2022/07/18 06:42:54;;;;;;;4.60;1.83;;;22.50;87.80;;;;;;5066927;28;20048;-55
2022/07/18 06:45:19;;;;;;;5.38;2.20;;;22.90;90.10;;;;;;5067769;28;20111;-55
2022/07/18 06:47:46;;;;;;;5.05;1.30;;;23.10;94.10;;;;;;5067446;28;20112;-56
2022/07/18 06:50:13;;;;;;;5.25;1.60;;;24.10;71.50;;;;;;5067431;28;20379;-56
2022/07/18 06:52:43;;;;;;;4.03;2.05;;;24.40;72.10;;;;;;5067426;28;20098;-56
2022/07/18 06:55:12;;;;;;;4.18;1.55;;;25.40;69.00;;;;;;5066978;28;20114;-57
2022/07/18 06:57:38;;;;;;;2.72;1.25;;;26.60;67.40;;;;;;5066618;28;20036;-56
2022/07/18 07:00:06;;;;;;;5.43;1.42;;;27.10;65.70;;;;;;5067191;28;20111;-56
2022/07/18 07:02:32;;;;;;;4.93;1.73;;;26.90;64.30;;;;;;5067227;28;20042;-56
2022/07/18 07:04:57;;;;;;;3.67;1.30;;;26.90;63.20;;;;;;5048906;28;20123;-56
2022/07/18 07:07:23;;;;;;;5.47;1.73;;;26.90;62.70;;;;;;5067145;28;20047;-56
2022/07/18 07:09:49;;;;;;;4.10;1.40;;;27.70;62.30;;;;;;5048310;28;20535;-57
2022/07/18 07:12:14;;;;;;;5.82;1.73;;;29.10;61.00;;;;;;5066519;28;20084;-57
2022/07/18 07:14:40;;;;;;;4.50;1.88;;;30.60;63.20;;;;;;5066838;28;20056;-56
2022/07/18 07:17:06;;;;;;;4.03;1.38;;;31.70;59.00;;;;;;5067160;28;20047;-57
2022/07/18 07:19:32;;;;;;;3.88;1.23;;;32.30;57.70;;;;;;5048704;28;20049;-57
2022/07/18 07:21:57;;;;;;;3.35;0.98;;;33.40;58.90;;;;;;5066276;28;20445;-57
2022/07/18 07:24:23;;;;;;;8.02;1.67;;;33.80;57.10;;;;;;5066667;28;20051;-57
2022/07/18 07:26:48;;;;;;;4.45;1.30;;;33.90;55.70;;;;;;5066477;28;20048;-57
2022/07/18 07:29:14;;;;;;;3.42;1.48;;;34.60;54.40;;;;;;5066560;28;20086;-57
2022/07/18 07:31:42;;;;;;;4.15;0.93;;;35.30;52.20;;;;;;5066451;28;20048;-57
2022/07/18 07:34:08;;;;;;;4.20;0.98;;;36.40;50.20;;;;;;5066390;28;20082;-57
2022/07/18 07:36:34;;;;;;;5.15;1.23;;;36.80;49.10;;;;;;5048321;28;20094;-57
2022/07/18 07:39:00;;;;;;;4.15;0.85;;;37.30;47.60;;;;;;5066507;28;20337;-57
2022/07/18 07:41:26;;;;;;;2.97;0.98;;;37.70;48.10;;;;;;5048157;28;20494;-57
2022/07/18 07:43:51;;;;;;;2.80;0.85;;;37.80;47.20;;;;;;5066029;28;20128;-57
2022/07/18 07:46:17;;;;;;;2.97;1.15;;;38.00;47.70;;;;;;5066408;28;20084;-57
2022/07/18 07:48:43;;;;;;;7.13;1.40;;;38.50;46.70;;;;;;5048489;28;20040;-57
2022/07/18 07:51:10;;;;;;;4.25;0.52;;;39.20;45.70;;;;;;5066290;28;20097;-57
2022/07/18 07:53:36;;;;;;;4.07;0.90;;;40.00;44.30;;;;;;5066515;28;20044;-58
2022/07/18 07:56:02;;;;;;;2.42;0.60;;;39.60;45.10;;;;;;5066206;28;20098;-57
2022/07/18 07:58:27;;;;;;;2.75;0.63;;;39.00;44.90;;;;;;5066071;28;20051;-57
2022/07/18 08:00:53;;;;;;;2.58;0.40;;;38.70;43.90;;;;;;5066761;28;20138;-57
2022/07/18 08:03:19;;;;;;;2.30;0.50;;;37.80;43.80;;;;;;5066160;28;20485;-57
2022/07/18 08:05:47;;;;;;;1.42;0.40;;;36.60;45.10;;;;;;5066621;28;20060;-57
2022/07/18 08:08:13;;;;;;;2.65;0.73;;;35.50;46.00;;;;;;5066427;28;20405;-57
2022/07/18 08:10:39;;;;;;;1.70;0.57;;;35.40;47.60;;;;;;5069771;28;20561;-57
2022/07/18 08:13:05;;;;;;;2.25;0.50;;;36.20;47.80;;;;;;5069505;28;20131;-57
2022/07/18 08:15:31;;;;;;;2.45;0.60;;;37.20;47.50;;;;;;5069395;28;20186;-57
2022/07/18 08:17:57;;;;;;;3.47;0.57;;;38.20;45.90;;;;;;5069970;28;20487;-57
2022/07/18 08:20:23;;;;;;;3.33;0.50;;;39.00;44.90;;;;;;5070030;28;20036;-57
2022/07/18 08:23:17;;;;;;;3.03;0.75;;;39.20;43.90;;;;;;5070024;28;20054;-57
2022/07/18 08:25:44;;;;;;;2.78;0.50;;;39.60;42.80;;;;;;5067078;28;20101;-57
2022/07/18 08:28:11;;;;;;;2.60;0.43;;;39.90;42.20;;;;;;5069833;28;20130;-57
2022/07/18 08:30:39;;;;;;;6.38;0.80;;;40.30;41.80;;;;;;5070353;28;20044;-57
2022/07/18 08:33:05;;;;;;;4.40;0.80;;;40.00;41.40;;;;;;5052055;28;20072;-57
2022/07/18 08:35:32;;;;;;;3.55;0.70;;;39.10;41.90;;;;;;5070320;28;20497;-57
2022/07/18 08:37:59;;;;;;;2.85;0.45;;;38.70;41.80;;;;;;5070188;28;20392;-57
2022/07/18 08:40:25;;;;;;;3.22;0.60;;;38.60;42.90;;;;;;5069614;28;20045;-57
2022/07/18 08:42:53;;;;;;;5.95;0.65;;;38.90;42.80;;;;;;5069498;28;20044;-57
2022/07/18 08:45:23;;;;;;;4.97;0.70;;;39.50;41.80;;;;;;5069558;28;20076;-57
2022/07/18 08:47:50;;;;;;;3.55;0.73;;;39.60;41.90;;;;;;5069346;28;20045;-57
2022/07/18 08:50:16;;;;;;;3.80;0.40;;;39.30;42.70;;;;;;5069394;28;20047;-57
2022/07/18 08:52:43;;;;;;;2.15;0.65;;;39.70;42.60;;;;;;5069272;28;20048;-58
2022/07/18 08:55:10;;;;;;;2.25;0.40;;;40.80;41.90;;;;;;5069443;28;20124;-57
2022/07/18 08:57:36;;;;;;;5.35;0.47;;;41.80;41.50;;;;;;5069552;28;20044;-58
2022/07/18 09:00:04;;;;;;;3.05;0.40;;;42.20;40.60;;;;;;5069414;28;20077;-57
2022/07/18 09:02:30;;;;;;;2.08;0.40;;;42.70;40.10;;;;;;5065174;28;20056;-57
2022/07/18 09:04:55;;;;;;;9.85;1.10;;;43.20;38.90;;;;;;5069678;28;20486;-57
2022/07/18 09:07:30;;;;;;;3.03;0.70;;;43.90;38.40;;;;;;5068934;28;20706;-57
2022/07/18 09:09:58;;;;;;;4.28;1.02;;;44.00;38.70;;;;;;5069348;28;20040;-57
2022/07/18 09:12:25;;;;;;;8.18;0.50;;;43.60;38.00;;;;;;5068734;28;20123;-57
2022/07/18 09:14:51;;;;;;;3.08;0.40;;;42.90;36.80;;;;;;5051730;28;20049;-57
2022/07/18 09:17:23;;;;;;;2.58;0.40;;;42.30;36.60;;;;;;5068390;28;20044;-57
2022/07/18 09:20:07;;;;;;;3.70;0.40;;;41.50;37.20;;;;;;5066952;28;20044;-57
2022/07/18 09:22:35;;;;;;;0.90;0.30;;;40.40;37.60;;;;;;5068242;28;20048;-57
2022/07/18 09:25:12;;;;;;;1.80;0.43;;;39.10;39.10;;;;;;5069399;28;20049;-57
2022/07/18 09:27:47;;;;;;;3.67;0.70;;;38.00;40.50;;;;;;5068826;28;20123;-57
2022/07/18 09:30:25;;;;;;;1.90;0.40;;;37.30;41.80;;;;;;5067095;28;20105;-57
2022/07/18 09:33:02;;;;;;;3.08;0.55;;;36.90;43.70;;;;;;5068673;28;20048;-57
2022/07/18 09:35:32;;;;;;;9.50;1.92;;;36.90;42.80;;;;;;5068367;28;20131;-57
2022/07/18 09:38:11;;;;;;;4.25;0.55;;;36.90;43.50;;;;;;5068801;28;20434;-57
2022/07/18 09:40:46;;;;;;;4.38;0.47;;;36.90;44.10;;;;;;5067014;28;20406;-57
2022/07/18 09:43:16;;;;;;;2.88;0.38;;;36.90;42.70;;;;;;5067998;28;20044;-57
2022/07/18 09:45:43;;;;;;;;;;;36.90;43.40;;;;;;5068519;28;20116;-57
2022/07/18 09:48:12;;;;;;;2.28;0.30;;;37.20;45.00;;;;;;5068184;28;19920;-57
2022/07/18 09:50:51;;;;;;;2.88;0.57;;;37.80;44.50;;;;;;5068002;28;20048;-57
2022/07/18 09:53:26;;;;;;;3.95;0.30;;;38.40;43.70;;;;;;5068086;28;20044;-56
2022/07/18 09:55:57;;;;;;;2.25;0.40;;;38.70;41.30;;;;;;5068018;28;20055;-57
2022/07/18 09:58:28;;;;;;;2.30;0.50;;;39.00;39.50;;;;;;5067407;28;20475;-57
2022/07/18 10:00:57;;;;;;;5.00;0.40;;;39.40;39.40;;;;;;5067799;28;20383;-57
2022/07/18 10:03:24;;;;;;;3.92;0.40;;;39.70;39.70;;;;;;5066070;28;20054;-57
2022/07/18 10:05:54;;;;;;;1.60;0.50;;;40.10;40.80;;;;;;5067362;28;20044;-57
2022/07/18 10:08:23;;;;;;;3.30;0.50;;;40.30;40.20;;;;;;5067552;28;20048;-57
2022/07/18 10:10:50;;;;;;;3.97;0.57;;;40.20;39.40;;;;;;5067396;28;20402;-57
2022/07/18 10:13:18;;;;;;;3.45;0.60;;;40.10;39.30;;;;;;5067381;28;20041;-57
2022/07/18 10:15:45;;;;;;;3.47;0.50;;;40.20;38.30;;;;;;5067178;28;20091;-57
2022/07/18 10:18:14;;;;;;;2.40;0.43;;;40.40;39.20;;;;;;5067054;28;20037;-57
2022/07/18 10:20:46;;;;;;;1.63;0.50;;;40.80;39.80;;;;;;5067525;28;20049;-57
2022/07/18 10:23:27;;;;;;;2.70;0.60;;;41.20;39.80;;;;;;5065821;28;20055;-57
2022/07/18 10:26:14;;;;;;;2.67;0.52;;;41.70;39.90;;;;;;5067416;28;20493;-57
2022/07/18 10:28:55;;;;;;;1.98;0.55;;;41.70;37.70;;;;;;5065745;28;20507;-57
2022/07/18 10:31:58;;;;;;;3.15;0.50;;;41.60;38.60;;;;;;5067501;28;20051;-57
2022/07/18 10:34:32;;;;;;;4.22;0.60;;;41.30;39.20;;;;;;5066897;28;20045;-57
2022/07/18 10:37:01;;;;;;;1.92;0.60;;;41.50;37.80;;;;;;5067541;28;20402;-57
2022/07/18 10:39:39;;;;;;;2.38;0.65;;;41.60;37.30;;;;;;5067375;28;20041;-57
2022/07/18 10:42:11;;;;;;;2.75;0.90;;;41.60;37.80;;;;;;5067598;28;20123;-57
2022/07/18 10:44:39;;;;;;;3.05;0.88;;;41.80;38.50;;;;;;5067236;28;20048;-57
2022/07/18 10:47:23;;;;;;;4.30;1.10;;;41.90;38.40;;;;;;5067080;28;20083;-57
2022/07/18 10:49:57;;;;;;;5.28;0.90;;;42.30;38.60;;;;;;5067380;28;20052;-57
2022/07/18 10:52:26;;;;;;;2.10;0.68;;;42.60;36.80;;;;;;5067350;28;20043;-57
2022/07/18 10:55:08;;;;;;;3.47;0.73;;;42.80;37.50;;;;;;5066822;28;20048;-57
2022/07/18 10:57:39;;;;;;;3.95;1.10;;;42.50;37.00;;;;;;5066605;28;20498;-57
2022/07/18 11:00:26;;;;;;;4.05;1.10;;;41.50;36.40;;;;;;5067053;28;20040;-57
2022/07/18 11:03:08;;;;;;;2.05;1.08;;;40.60;38.30;;;;;;5067004;28;20055;-57
2022/07/18 11:05:35;;;;;;;4.70;1.10;;;39.40;38.10;;;;;;5067135;28;20040;-57
2022/07/18 11:08:01;;;;;;;2.88;0.90;;;38.70;37.60;;;;;;5066660;28;20561;-57
2022/07/18 11:13:21;;;;;;;;;;;37.10;41.00;;;;;;5067470;28;20087;-57
2022/07/18 11:16:12;;;;;;;2.47;0.70;;;36.40;41.40;;;;;;5066393;28;20059;-57
2022/07/18 11:18:42;;;;;;;3.22;0.88;;;35.70;39.80;;;;;;5059486;28;20056;-57
2022/07/18 11:21:22;;;;;;;4.68;1.10;;;35.20;43.00;;;;;;5067280;28;20225;-57
2022/07/18 11:23:54;;;;;;;5.78;1.80;;;34.80;43.30;;;;;;5066862;28;20050;-57
2022/07/18 11:26:23;;;;;;;4.07;1.20;;;34.40;43.70;;;;;;5067149;28;20036;-56
2022/07/18 11:28:58;;;;;;;2.75;1.40;;;34.10;45.30;;;;;;5066748;28;20052;-56
2022/07/18 11:31:24;;;;;;;4.40;1.67;;;33.80;43.90;;;;;;5066505;28;20036;-57
2022/07/18 11:33:50;;;;;;;4.80;1.25;;;33.60;42.80;;;;;;5066443;28;20085;-57
2022/07/18 11:36:19;;;;;;;2.78;1.27;;;33.40;42.20;;;;;;5065125;28;20037;-57
2022/07/18 11:38:54;;;;;;;7.65;1.58;;;33.10;41.90;;;;;;5064080;28;20144;-57
2022/07/18 11:41:20;;;;;;;2.97;1.10;;;32.80;41.60;;;;;;5037780;28;20079;-58
2022/07/18 11:43:47;;;;;;;4.03;1.30;;;32.50;42.40;;;;;;5059766;28;20044;-54
2022/07/18 11:46:15;;;;;;;2.78;1.27;;;32.30;44.80;;;;;;5065614;28;20044;-48
2022/07/18 11:48:43;;;;;;;2.40;1.05;;;32.10;45.10;;;;;;5068142;28;20040;-53
2022/07/18 11:51:15;;;;;;;3.35;1.17;;;31.90;45.80;;;;;;5070268;28;20048;-55
2022/07/18 11:53:45;;;;;;;3.92;1.58;;;31.70;44.70;;;;;;5069935;28;20048;-54
2022/07/18 11:56:11;;;;;;;1.90;0.90;;;31.60;43.70;;;;;;5070197;28;20188;-54
2022/07/18 11:58:38;;;;;;;3.72;1.40;;;31.50;45.60;;;;;;5070092;28;20032;-54
2022/07/18 12:01:05;;;;;;;4.15;1.10;;;31.30;47.30;;;;;;5069240;28;20047;-53
2022/07/18 12:03:33;;;;;;;2.97;1.30;;;31.20;47.10;;;;;;5069851;28;20095;-51
2022/07/18 12:06:13;;;;;;;2.35;1.42;;;31.10;45.10;;;;;;5068012;28;20402;-54
2022/07/18 12:08:44;;;;;;;2.55;1.25;;;31.10;44.60;;;;;;5070207;28;20638;-52
2022/07/18 12:11:12;;;;;;;8.05;1.58;;;31.00;44.60;;;;;;5069755;28;20401;-51
2022/07/18 12:13:49;;;;;;;3.05;1.52;;;30.90;46.50;;;;;;5070393;28;20044;-54
2022/07/18 12:16:29;;;;;;;7.03;1.50;;;30.90;45.20;;;;;;5069769;28;20556;-53
2022/07/18 12:19:15;;;;;;;3.20;1.50;;;30.90;47.60;;;;;;5069913;28;20067;-50
2022/07/18 12:21:47;;;;;;;3.65;1.35;;;30.90;48.40;;;;;;5069655;28;20090;-54
2022/07/18 12:24:25;;;;;;;3.60;1.63;;;30.90;48.20;;;;;;5068421;28;20083;-53
2022/07/18 12:27:12;;;;;;;4.93;1.42;;;30.80;48.10;;;;;;5069886;28;20036;-51
2022/07/18 12:30:06;;;;;;;3.60;1.80;;;30.80;48.60;;;;;;5069547;28;20044;-54
2022/07/18 12:32:45;;;;;;;3.70;1.17;;;30.70;47.10;;;;;;5069826;28;20044;-54
2022/07/18 12:35:11;;;;;;;2.88;1.40;;;30.50;48.20;;;;;;5070132;28;20048;-50
2022/07/18 12:37:37;;;;;;;4.80;1.48;;;30.40;48.80;;;;;;5070166;28;20094;-54
2022/07/18 12:40:07;;;;;;;3.70;1.70;;;30.40;48.60;;;;;;5069419;28;20040;-52
2022/07/18 12:42:40;;;;;;;5.23;1.50;;;30.30;50.20;;;;;;5069368;28;20048;-50
2022/07/18 12:45:11;;;;;;;6.88;1.75;;;30.20;50.20;;;;;;5069467;28;20294;-53
2022/07/18 12:47:38;;;;;;;4.63;1.50;;;30.10;49.20;;;;;;5069516;28;20041;-51
2022/07/18 12:50:05;;;;;;;2.00;1.13;;;30.00;50.10;;;;;;5069521;28;20086;-50
2022/07/18 12:52:30;;;;;;;1.83;0.98;;;29.60;50.50;;;;;;5069518;28;20123;-51